sensor_id;sensor_type;location;lat;lon;timestamp;P1;durP1;ratioP1;P2;durP2;ratioP2
4074;SDS011;2052;53.522;9.806;2023-05-08T00:01:07;9.90;;;6.80;;
4074;SDS011;2052;53.522;9.806;2023-05-08T00:03:34;7.67;;;6.87;;
4074;SDS011;2052;53.522;9.806;2023-05-08T00:06:02;9.50;;;7.07;;
4074;SDS011;2052;53.522;9.806;2023-05-08T00:08:29;7.20;;;6.50;;
4074;SDS011;2052;53.522;9.806;2023-05-08T00:10:55;7.53;;;6.47;;
4074;SDS011;2052;53.522;9.806;2023-05-08T00:13:24;9.93;;;6.50;;
4074;SDS011;2052;53.522;9.806;2023-05-08T00:15:50;7.40;;;6.60;;
4074;SDS011;2052;53.522;9.806;2023-05-08T00:18:17;8.10;;;6.10;;
4074;SDS011;2052;53.522;9.806;2023-05-08T00:20:43;8.47;;;6.43;;
4074;SDS011;2052;53.522;9.806;2023-05-08T00:23:10;8.60;;;6.90;;
4074;SDS011;2052;53.522;9.806;2023-05-08T00:25:36;7.47;;;5.87;;
4074;SDS011;2052;53.522;9.806;2023-05-08T00:28:03;7.63;;;6.13;;
4074;SDS011;2052;53.522;9.806;2023-05-08T00:30:31;8.07;;;6.10;;
4074;SDS011;2052;53.522;9.806;2023-05-08T00:32:58;6.70;;;6.00;;
4074;SDS011;2052;53.522;9.806;2023-05-08T00:35:24;6.20;;;5.60;;
4074;SDS011;2052;53.522;9.806;2023-05-08T00:37:51;6.93;;;5.70;;
4074;SDS011;2052;53.522;9.806;2023-05-08T00:40:17;7.10;;;5.63;;
4074;SDS011;2052;53.522;9.806;2023-05-08T00:42:45;7.17;;;5.57;;
4074;SDS011;2052;53.522;9.806;2023-05-08T00:45:11;7.53;;;5.83;;
4074;SDS011;2052;53.522;9.806;2023-05-08T00:47:39;6.30;;;5.70;;
4074;SDS011;2052;53.522;9.806;2023-05-08T00:50:06;6.40;;;5.70;;
4074;SDS011;2052;53.522;9.806;2023-05-08T00:52:33;7.40;;;6.07;;
4074;SDS011;2052;53.522;9.806;2023-05-08T00:55:00;6.53;;;5.70;;
4074;SDS011;2052;53.522;9.806;2023-05-08T00:57:28;7.00;;;6.30;;
4074;SDS011;2052;53.522;9.806;2023-05-08T00:59:56;6.00;;;5.40;;
4074;SDS011;2052;53.522;9.806;2023-05-08T01:02:24;6.40;;;5.60;;
4074;SDS011;2052;53.522;9.806;2023-05-08T01:04:52;6.53;;;5.70;;
4074;SDS011;2052;53.522;9.806;2023-05-08T01:07:19;6.43;;;5.70;;
4074;SDS011;2052;53.522;9.806;2023-05-08T01:09:46;8.73;;;6.43;;
4074;SDS011;2052;53.522;9.806;2023-05-08T01:12:14;6.33;;;5.73;;
4074;SDS011;2052;53.522;9.806;2023-05-08T01:14:49;6.90;;;6.20;;
4074;SDS011;2052;53.522;9.806;2023-05-08T01:17:27;6.57;;;5.77;;
4074;SDS011;2052;53.522;9.806;2023-05-08T01:20:05;7.63;;;6.20;;
4074;SDS011;2052;53.522;9.806;2023-05-08T01:22:44;7.10;;;6.40;;
4074;SDS011;2052;53.522;9.806;2023-05-08T01:25:28;6.97;;;6.27;;
4074;SDS011;2052;53.522;9.806;2023-05-08T01:31:12;7.70;;;6.23;;
4074;SDS011;2052;53.522;9.806;2023-05-08T01:33:52;8.47;;;5.83;;
4074;SDS011;2052;53.522;9.806;2023-05-08T01:36:28;10.50;;;7.30;;
4074;SDS011;2052;53.522;9.806;2023-05-08T01:39:06;9.50;;;6.73;;
4074;SDS011;2052;53.522;9.806;2023-05-08T01:41:38;7.03;;;6.07;;
4074;SDS011;2052;53.522;9.806;2023-05-08T01:44:08;8.30;;;6.90;;
4074;SDS011;2052;53.522;9.806;2023-05-08T01:46:37;6.80;;;5.60;;
4074;SDS011;2052;53.522;9.806;2023-05-08T01:49:07;7.77;;;6.40;;
4074;SDS011;2052;53.522;9.806;2023-05-08T01:51:36;8.23;;;6.50;;
4074;SDS011;2052;53.522;9.806;2023-05-08T01:54:10;8.50;;;6.07;;
4074;SDS011;2052;53.522;9.806;2023-05-08T01:56:39;12.80;;;7.30;;
4074;SDS011;2052;53.522;9.806;2023-05-08T01:59:15;7.30;;;6.57;;
4074;SDS011;2052;53.522;9.806;2023-05-08T02:01:55;8.63;;;6.83;;
4074;SDS011;2052;53.522;9.806;2023-05-08T02:04:30;7.20;;;6.50;;
4074;SDS011;2052;53.522;9.806;2023-05-08T02:07:02;7.60;;;6.80;;
4074;SDS011;2052;53.522;9.806;2023-05-08T02:09:29;7.40;;;6.70;;
4074;SDS011;2052;53.522;9.806;2023-05-08T02:11:56;9.40;;;7.30;;
4074;SDS011;2052;53.522;9.806;2023-05-08T02:14:27;7.60;;;6.70;;
4074;SDS011;2052;53.522;9.806;2023-05-08T02:16:55;9.90;;;7.33;;
4074;SDS011;2052;53.522;9.806;2023-05-08T02:19:23;10.27;;;7.97;;
4074;SDS011;2052;53.522;9.806;2023-05-08T02:21:54;10.83;;;7.83;;
4074;SDS011;2052;53.522;9.806;2023-05-08T02:24:24;8.77;;;7.70;;
4074;SDS011;2052;53.522;9.806;2023-05-08T02:26:52;7.63;;;6.80;;
4074;SDS011;2052;53.522;9.806;2023-05-08T02:29:21;8.87;;;7.07;;
4074;SDS011;2052;53.522;9.806;2023-05-08T02:31:52;8.57;;;6.90;;
4074;SDS011;2052;53.522;9.806;2023-05-08T02:34:20;9.10;;;6.77;;
4074;SDS011;2052;53.522;9.806;2023-05-08T02:36:49;11.30;;;8.13;;
4074;SDS011;2052;53.522;9.806;2023-05-08T02:39:24;8.17;;;7.30;;
4074;SDS011;2052;53.522;9.806;2023-05-08T02:41:57;10.70;;;8.00;;
4074;SDS011;2052;53.522;9.806;2023-05-08T02:44:28;11.87;;;7.87;;
4074;SDS011;2052;53.522;9.806;2023-05-08T02:46:57;8.23;;;6.97;;
4074;SDS011;2052;53.522;9.806;2023-05-08T02:49:27;8.37;;;7.27;;
4074;SDS011;2052;53.522;9.806;2023-05-08T02:52:02;11.10;;;7.43;;
4074;SDS011;2052;53.522;9.806;2023-05-08T02:54:33;10.27;;;7.60;;
4074;SDS011;2052;53.522;9.806;2023-05-08T02:57:02;9.40;;;7.87;;
4074;SDS011;2052;53.522;9.806;2023-05-08T02:59:35;7.43;;;6.60;;
4074;SDS011;2052;53.522;9.806;2023-05-08T03:02:05;7.93;;;7.13;;
4074;SDS011;2052;53.522;9.806;2023-05-08T03:04:36;8.67;;;7.73;;
4074;SDS011;2052;53.522;9.806;2023-05-08T03:07:07;10.67;;;7.80;;
4074;SDS011;2052;53.522;9.806;2023-05-08T03:09:36;8.70;;;7.30;;
4074;SDS011;2052;53.522;9.806;2023-05-08T03:12:06;9.53;;;7.40;;
4074;SDS011;2052;53.522;9.806;2023-05-08T03:14:38;9.63;;;7.50;;
4074;SDS011;2052;53.522;9.806;2023-05-08T03:17:08;8.50;;;7.50;;
4074;SDS011;2052;53.522;9.806;2023-05-08T03:19:36;9.70;;;7.63;;
4074;SDS011;2052;53.522;9.806;2023-05-08T03:22:03;10.00;;;7.13;;
4074;SDS011;2052;53.522;9.806;2023-05-08T03:24:33;7.80;;;7.00;;
4074;SDS011;2052;53.522;9.806;2023-05-08T03:27:01;9.50;;;7.80;;
4074;SDS011;2052;53.522;9.806;2023-05-08T03:29:28;8.77;;;7.57;;
4074;SDS011;2052;53.522;9.806;2023-05-08T03:31:55;9.13;;;7.00;;
4074;SDS011;2052;53.522;9.806;2023-05-08T03:34:23;9.10;;;8.10;;
4074;SDS011;2052;53.522;9.806;2023-05-08T03:36:49;10.47;;;8.20;;
4074;SDS011;2052;53.522;9.806;2023-05-08T03:39:16;10.33;;;6.90;;
4074;SDS011;2052;53.522;9.806;2023-05-08T03:41:44;9.37;;;7.53;;
4074;SDS011;2052;53.522;9.806;2023-05-08T03:44:11;8.67;;;7.43;;
4074;SDS011;2052;53.522;9.806;2023-05-08T03:46:38;9.20;;;6.93;;
4074;SDS011;2052;53.522;9.806;2023-05-08T03:49:07;8.40;;;7.57;;
4074;SDS011;2052;53.522;9.806;2023-05-08T03:51:35;12.60;;;7.67;;
4074;SDS011;2052;53.522;9.806;2023-05-08T03:54:02;8.07;;;6.70;;
4074;SDS011;2052;53.522;9.806;2023-05-08T03:56:29;9.10;;;7.50;;
4074;SDS011;2052;53.522;9.806;2023-05-08T03:58:59;11.60;;;7.60;;
4074;SDS011;2052;53.522;9.806;2023-05-08T04:01:36;8.80;;;7.20;;
4074;SDS011;2052;53.522;9.806;2023-05-08T04:04:05;8.20;;;6.73;;
4074;SDS011;2052;53.522;9.806;2023-05-08T04:06:35;8.27;;;7.23;;
4074;SDS011;2052;53.522;9.806;2023-05-08T04:09:03;10.30;;;7.70;;
4074;SDS011;2052;53.522;9.806;2023-05-08T04:11:34;8.70;;;7.13;;
4074;SDS011;2052;53.522;9.806;2023-05-08T04:14:07;7.80;;;7.00;;
4074;SDS011;2052;53.522;9.806;2023-05-08T04:16:37;8.10;;;6.70;;
4074;SDS011;2052;53.522;9.806;2023-05-08T04:19:06;9.83;;;8.00;;
4074;SDS011;2052;53.522;9.806;2023-05-08T04:21:35;8.67;;;6.90;;
4074;SDS011;2052;53.522;9.806;2023-05-08T04:24:02;6.93;;;6.23;;
4074;SDS011;2052;53.522;9.806;2023-05-08T04:26:30;8.07;;;6.93;;
4074;SDS011;2052;53.522;9.806;2023-05-08T04:28:57;7.27;;;6.50;;
4074;SDS011;2052;53.522;9.806;2023-05-08T04:31:26;8.23;;;6.60;;
4074;SDS011;2052;53.522;9.806;2023-05-08T04:33:54;10.70;;;7.80;;
4074;SDS011;2052;53.522;9.806;2023-05-08T04:36:21;7.17;;;6.47;;
4074;SDS011;2052;53.522;9.806;2023-05-08T04:38:47;7.80;;;6.97;;
4074;SDS011;2052;53.522;9.806;2023-05-08T04:41:14;9.47;;;6.70;;
4074;SDS011;2052;53.522;9.806;2023-05-08T04:43:41;7.17;;;5.93;;
4074;SDS011;2052;53.522;9.806;2023-05-08T04:46:07;8.50;;;6.60;;
4074;SDS011;2052;53.522;9.806;2023-05-08T04:48:35;7.37;;;6.23;;
4074;SDS011;2052;53.522;9.806;2023-05-08T04:51:02;6.63;;;5.93;;
4074;SDS011;2052;53.522;9.806;2023-05-08T04:53:29;8.70;;;6.20;;
4074;SDS011;2052;53.522;9.806;2023-05-08T04:55:56;6.67;;;5.97;;
4074;SDS011;2052;53.522;9.806;2023-05-08T04:58:26;8.17;;;6.20;;
4074;SDS011;2052;53.522;9.806;2023-05-08T05:00:55;6.63;;;6.03;;
4074;SDS011;2052;53.522;9.806;2023-05-08T05:03:22;10.10;;;6.00;;
4074;SDS011;2052;53.522;9.806;2023-05-08T05:05:57;7.13;;;6.43;;
4074;SDS011;2052;53.522;9.806;2023-05-08T05:08:24;6.53;;;5.70;;
4074;SDS011;2052;53.522;9.806;2023-05-08T05:10:52;10.23;;;6.77;;
4074;SDS011;2052;53.522;9.806;2023-05-08T05:13:19;7.03;;;5.80;;
4074;SDS011;2052;53.522;9.806;2023-05-08T05:15:46;6.70;;;6.07;;
4074;SDS011;2052;53.522;9.806;2023-05-08T05:18:15;7.53;;;5.87;;
4074;SDS011;2052;53.522;9.806;2023-05-08T05:20:46;6.80;;;5.97;;
4074;SDS011;2052;53.522;9.806;2023-05-08T05:23:17;7.37;;;6.10;;
4074;SDS011;2052;53.522;9.806;2023-05-08T05:25:46;7.77;;;5.90;;
4074;SDS011;2052;53.522;9.806;2023-05-08T05:28:23;6.00;;;5.40;;
4074;SDS011;2052;53.522;9.806;2023-05-08T05:30:50;7.00;;;5.00;;
4074;SDS011;2052;53.522;9.806;2023-05-08T05:33:19;6.47;;;5.83;;
4074;SDS011;2052;53.522;9.806;2023-05-08T05:35:48;7.33;;;6.30;;
4074;SDS011;2052;53.522;9.806;2023-05-08T05:38:28;8.43;;;6.63;;
4074;SDS011;2052;53.522;9.806;2023-05-08T05:40:56;7.33;;;6.27;;
4074;SDS011;2052;53.522;9.806;2023-05-08T05:43:23;7.43;;;6.63;;
4074;SDS011;2052;53.522;9.806;2023-05-08T05:45:50;66.30;;;10.00;;
4074;SDS011;2052;53.522;9.806;2023-05-08T05:48:17;8.27;;;5.90;;
4074;SDS011;2052;53.522;9.806;2023-05-08T05:50:44;7.03;;;6.33;;
4074;SDS011;2052;53.522;9.806;2023-05-08T05:53:11;9.03;;;5.90;;
4074;SDS011;2052;53.522;9.806;2023-05-08T05:55:40;7.47;;;6.23;;
4074;SDS011;2052;53.522;9.806;2023-05-08T05:58:07;8.70;;;6.60;;
4074;SDS011;2052;53.522;9.806;2023-05-08T06:00:35;6.30;;;5.50;;
4074;SDS011;2052;53.522;9.806;2023-05-08T06:03:02;5.93;;;5.33;;
4074;SDS011;2052;53.522;9.806;2023-05-08T06:05:29;6.67;;;5.83;;
4074;SDS011;2052;53.522;9.806;2023-05-08T06:07:56;6.90;;;5.97;;
4074;SDS011;2052;53.522;9.806;2023-05-08T06:10:23;7.53;;;6.13;;
4074;SDS011;2052;53.522;9.806;2023-05-08T06:12:51;6.90;;;6.20;;
4074;SDS011;2052;53.522;9.806;2023-05-08T06:15:18;6.90;;;5.90;;
4074;SDS011;2052;53.522;9.806;2023-05-08T06:17:46;7.97;;;6.60;;
4074;SDS011;2052;53.522;9.806;2023-05-08T06:20:13;9.03;;;5.90;;
4074;SDS011;2052;53.522;9.806;2023-05-08T06:22:40;9.80;;;6.50;;
4074;SDS011;2052;53.522;9.806;2023-05-08T06:25:07;7.70;;;6.73;;
4074;SDS011;2052;53.522;9.806;2023-05-08T06:27:34;7.20;;;6.50;;
4074;SDS011;2052;53.522;9.806;2023-05-08T06:30:03;7.20;;;6.23;;
4074;SDS011;2052;53.522;9.806;2023-05-08T06:32:34;8.27;;;6.40;;
4074;SDS011;2052;53.522;9.806;2023-05-08T06:35:01;9.07;;;7.57;;
4074;SDS011;2052;53.522;9.806;2023-05-08T06:37:27;10.80;;;7.60;;
4074;SDS011;2052;53.522;9.806;2023-05-08T06:39:55;7.53;;;6.10;;
4074;SDS011;2052;53.522;9.806;2023-05-08T06:42:22;9.07;;;7.33;;
4074;SDS011;2052;53.522;9.806;2023-05-08T06:44:48;9.93;;;7.57;;
4074;SDS011;2052;53.522;9.806;2023-05-08T06:47:19;9.07;;;8.07;;
4074;SDS011;2052;53.522;9.806;2023-05-08T06:49:46;8.17;;;7.10;;
4074;SDS011;2052;53.522;9.806;2023-05-08T06:52:12;9.53;;;7.40;;
4074;SDS011;2052;53.522;9.806;2023-05-08T06:54:39;10.40;;;7.77;;
4074;SDS011;2052;53.522;9.806;2023-05-08T06:57:06;9.03;;;7.60;;
4074;SDS011;2052;53.522;9.806;2023-05-08T06:59:32;9.60;;;6.90;;
4074;SDS011;2052;53.522;9.806;2023-05-08T07:01:59;7.70;;;7.00;;
4074;SDS011;2052;53.522;9.806;2023-05-08T07:04:27;8.43;;;7.63;;
4074;SDS011;2052;53.522;9.806;2023-05-08T07:06:53;7.70;;;6.90;;
4074;SDS011;2052;53.522;9.806;2023-05-08T07:09:20;7.90;;;6.70;;
4074;SDS011;2052;53.522;9.806;2023-05-08T07:11:47;8.87;;;6.50;;
4074;SDS011;2052;53.522;9.806;2023-05-08T07:14:13;9.40;;;7.67;;
4074;SDS011;2052;53.522;9.806;2023-05-08T07:16:40;11.73;;;7.47;;
4074;SDS011;2052;53.522;9.806;2023-05-08T07:19:07;10.33;;;7.30;;
4074;SDS011;2052;53.522;9.806;2023-05-08T07:21:35;8.10;;;6.60;;
4074;SDS011;2052;53.522;9.806;2023-05-08T07:24:02;8.70;;;7.07;;
4074;SDS011;2052;53.522;9.806;2023-05-08T07:26:30;11.80;;;7.40;;
4074;SDS011;2052;53.522;9.806;2023-05-08T07:28:57;8.77;;;7.83;;
4074;SDS011;2052;53.522;9.806;2023-05-08T07:31:24;7.50;;;6.80;;
4074;SDS011;2052;53.522;9.806;2023-05-08T07:33:51;14.03;;;7.27;;
4074;SDS011;2052;53.522;9.806;2023-05-08T07:36:17;11.07;;;8.10;;
4074;SDS011;2052;53.522;9.806;2023-05-08T07:38:46;7.77;;;7.00;;
4074;SDS011;2052;53.522;9.806;2023-05-08T07:41:12;9.20;;;7.73;;
4074;SDS011;2052;53.522;9.806;2023-05-08T07:43:39;8.30;;;7.37;;
4074;SDS011;2052;53.522;9.806;2023-05-08T07:46:07;8.57;;;7.77;;
4074;SDS011;2052;53.522;9.806;2023-05-08T07:48:34;17.10;;;8.43;;
4074;SDS011;2052;53.522;9.806;2023-05-08T07:51:00;8.57;;;7.70;;
4074;SDS011;2052;53.522;9.806;2023-05-08T07:53:27;9.53;;;7.80;;
4074;SDS011;2052;53.522;9.806;2023-05-08T07:55:55;9.50;;;8.50;;
4074;SDS011;2052;53.522;9.806;2023-05-08T07:58:22;14.50;;;9.77;;
4074;SDS011;2052;53.522;9.806;2023-05-08T08:00:49;12.80;;;8.50;;
4074;SDS011;2052;53.522;9.806;2023-05-08T08:03:15;8.10;;;7.30;;
4074;SDS011;2052;53.522;9.806;2023-05-08T08:05:42;12.63;;;8.53;;
4074;SDS011;2052;53.522;9.806;2023-05-08T08:08:08;10.43;;;9.30;;
4074;SDS011;2052;53.522;9.806;2023-05-08T08:10:35;13.53;;;8.80;;
4074;SDS011;2052;53.522;9.806;2023-05-08T08:13:03;11.43;;;8.60;;
4074;SDS011;2052;53.522;9.806;2023-05-08T08:15:29;12.57;;;9.30;;
4074;SDS011;2052;53.522;9.806;2023-05-08T08:17:56;11.63;;;8.40;;
4074;SDS011;2052;53.522;9.806;2023-05-08T08:20:23;11.37;;;8.03;;
4074;SDS011;2052;53.522;9.806;2023-05-08T08:22:49;11.33;;;8.60;;
4074;SDS011;2052;53.522;9.806;2023-05-08T08:25:16;12.87;;;8.70;;
4074;SDS011;2052;53.522;9.806;2023-05-08T08:27:42;10.23;;;9.00;;
4074;SDS011;2052;53.522;9.806;2023-05-08T08:30:10;13.20;;;8.30;;
4074;SDS011;2052;53.522;9.806;2023-05-08T08:32:37;10.33;;;8.80;;
4074;SDS011;2052;53.522;9.806;2023-05-08T08:35:04;9.37;;;8.23;;
4074;SDS011;2052;53.522;9.806;2023-05-08T08:37:31;10.43;;;9.20;;
4074;SDS011;2052;53.522;9.806;2023-05-08T08:39:58;15.77;;;10.23;;
4074;SDS011;2052;53.522;9.806;2023-05-08T08:42:25;14.70;;;10.47;;
4074;SDS011;2052;53.522;9.806;2023-05-08T08:44:52;12.00;;;9.63;;
4074;SDS011;2052;53.522;9.806;2023-05-08T08:47:20;14.70;;;9.80;;
4074;SDS011;2052;53.522;9.806;2023-05-08T08:49:48;13.33;;;9.87;;
4074;SDS011;2052;53.522;9.806;2023-05-08T08:52:18;15.27;;;10.57;;
4074;SDS011;2052;53.522;9.806;2023-05-08T08:54:50;16.60;;;10.07;;
4074;SDS011;2052;53.522;9.806;2023-05-08T08:57:18;13.50;;;9.30;;
4074;SDS011;2052;53.522;9.806;2023-05-08T08:59:46;15.07;;;10.20;;
4074;SDS011;2052;53.522;9.806;2023-05-08T09:02:12;16.43;;;9.93;;
4074;SDS011;2052;53.522;9.806;2023-05-08T09:04:43;12.17;;;10.27;;
4074;SDS011;2052;53.522;9.806;2023-05-08T09:07:10;12.40;;;9.80;;
4074;SDS011;2052;53.522;9.806;2023-05-08T09:09:38;12.17;;;9.20;;
4074;SDS011;2052;53.522;9.806;2023-05-08T09:12:06;15.17;;;9.30;;
4074;SDS011;2052;53.522;9.806;2023-05-08T09:14:33;11.40;;;9.50;;
4074;SDS011;2052;53.522;9.806;2023-05-08T09:17:01;12.37;;;9.80;;
4074;SDS011;2052;53.522;9.806;2023-05-08T09:19:28;14.43;;;9.33;;
4074;SDS011;2052;53.522;9.806;2023-05-08T09:21:58;10.30;;;8.83;;
4074;SDS011;2052;53.522;9.806;2023-05-08T09:24:25;9.23;;;8.23;;
4074;SDS011;2052;53.522;9.806;2023-05-08T09:26:53;12.00;;;9.00;;
4074;SDS011;2052;53.522;9.806;2023-05-08T09:29:20;10.03;;;8.50;;
4074;SDS011;2052;53.522;9.806;2023-05-08T09:31:47;10.40;;;8.77;;
4074;SDS011;2052;53.522;9.806;2023-05-08T09:34:21;12.80;;;8.37;;
4074;SDS011;2052;53.522;9.806;2023-05-08T09:36:51;16.77;;;9.00;;
4074;SDS011;2052;53.522;9.806;2023-05-08T09:39:24;11.00;;;8.37;;
4074;SDS011;2052;53.522;9.806;2023-05-08T09:41:57;10.30;;;7.80;;
4074;SDS011;2052;53.522;9.806;2023-05-08T09:44:27;9.50;;;7.60;;
4074;SDS011;2052;53.522;9.806;2023-05-08T09:47:08;10.67;;;7.73;;
4074;SDS011;2052;53.522;9.806;2023-05-08T09:49:35;8.90;;;7.90;;
4074;SDS011;2052;53.522;9.806;2023-05-08T09:52:03;11.80;;;8.67;;
4074;SDS011;2052;53.522;9.806;2023-05-08T09:54:32;11.93;;;7.97;;
4074;SDS011;2052;53.522;9.806;2023-05-08T09:56:59;9.40;;;8.40;;
4074;SDS011;2052;53.522;9.806;2023-05-08T09:59:27;9.70;;;8.30;;
4074;SDS011;2052;53.522;9.806;2023-05-08T10:01:55;12.03;;;7.27;;
4074;SDS011;2052;53.522;9.806;2023-05-08T10:04:31;10.03;;;8.07;;
4074;SDS011;2052;53.522;9.806;2023-05-08T10:07:00;10.43;;;8.03;;
4074;SDS011;2052;53.522;9.806;2023-05-08T10:09:27;11.53;;;7.20;;
4074;SDS011;2052;53.522;9.806;2023-05-08T10:11:56;11.73;;;9.97;;
4074;SDS011;2052;53.522;9.806;2023-05-08T10:14:23;11.33;;;8.50;;
4074;SDS011;2052;53.522;9.806;2023-05-08T10:16:51;10.40;;;7.60;;
4074;SDS011;2052;53.522;9.806;2023-05-08T10:19:18;8.60;;;7.37;;
4074;SDS011;2052;53.522;9.806;2023-05-08T10:21:46;8.33;;;7.30;;
4074;SDS011;2052;53.522;9.806;2023-05-08T10:24:14;8.53;;;7.53;;
4074;SDS011;2052;53.522;9.806;2023-05-08T10:26:42;9.63;;;7.47;;
4074;SDS011;2052;53.522;9.806;2023-05-08T10:29:16;8.63;;;7.60;;
4074;SDS011;2052;53.522;9.806;2023-05-08T10:31:45;8.63;;;7.73;;
4074;SDS011;2052;53.522;9.806;2023-05-08T10:34:17;11.80;;;7.50;;
4074;SDS011;2052;53.522;9.806;2023-05-08T10:36:45;10.40;;;8.27;;
4074;SDS011;2052;53.522;9.806;2023-05-08T10:39:12;9.93;;;7.27;;
4074;SDS011;2052;53.522;9.806;2023-05-08T10:41:41;10.67;;;7.37;;
4074;SDS011;2052;53.522;9.806;2023-05-08T10:44:08;8.10;;;7.30;;
4074;SDS011;2052;53.522;9.806;2023-05-08T10:46:39;8.80;;;6.50;;
4074;SDS011;2052;53.522;9.806;2023-05-08T10:49:13;10.93;;;7.30;;
4074;SDS011;2052;53.522;9.806;2023-05-08T10:51:44;10.33;;;7.10;;
4074;SDS011;2052;53.522;9.806;2023-05-08T10:54:17;10.20;;;6.60;;
4074;SDS011;2052;53.522;9.806;2023-05-08T10:56:45;8.53;;;6.07;;
4074;SDS011;2052;53.522;9.806;2023-05-08T10:59:17;7.20;;;6.00;;
4074;SDS011;2052;53.522;9.806;2023-05-08T11:01:47;9.23;;;7.30;;
4074;SDS011;2052;53.522;9.806;2023-05-08T11:04:21;8.27;;;7.10;;
4074;SDS011;2052;53.522;9.806;2023-05-08T11:06:48;8.57;;;7.20;;
4074;SDS011;2052;53.522;9.806;2023-05-08T11:09:21;6.47;;;5.80;;
4074;SDS011;2052;53.522;9.806;2023-05-08T11:12:05;10.23;;;5.83;;
4074;SDS011;2052;53.522;9.806;2023-05-08T11:14:34;10.53;;;6.40;;
4074;SDS011;2052;53.522;9.806;2023-05-08T11:17:04;6.63;;;5.93;;
4074;SDS011;2052;53.522;9.806;2023-05-08T11:19:32;7.60;;;6.80;;
4074;SDS011;2052;53.522;9.806;2023-05-08T11:22:11;9.03;;;4.93;;
4074;SDS011;2052;53.522;9.806;2023-05-08T11:25:01;6.50;;;5.80;;
4074;SDS011;2052;53.522;9.806;2023-05-08T11:30:33;8.67;;;6.30;;
4074;SDS011;2052;53.522;9.806;2023-05-08T11:33:18;7.47;;;6.00;;
4074;SDS011;2052;53.522;9.806;2023-05-08T11:35:49;7.83;;;6.53;;
4074;SDS011;2052;53.522;9.806;2023-05-08T11:38:18;7.33;;;5.40;;
4074;SDS011;2052;53.522;9.806;2023-05-08T11:40:46;9.03;;;5.33;;
4074;SDS011;2052;53.522;9.806;2023-05-08T11:43:18;6.77;;;5.80;;
4074;SDS011;2052;53.522;9.806;2023-05-08T11:45:50;7.40;;;5.57;;
4074;SDS011;2052;53.522;9.806;2023-05-08T11:48:21;6.10;;;5.43;;
4074;SDS011;2052;53.522;9.806;2023-05-08T11:50:49;8.70;;;5.30;;
4074;SDS011;2052;53.522;9.806;2023-05-08T11:53:16;6.17;;;5.00;;
4074;SDS011;2052;53.522;9.806;2023-05-08T11:55:44;6.03;;;4.80;;
4074;SDS011;2052;53.522;9.806;2023-05-08T11:58:13;7.30;;;4.80;;
4074;SDS011;2052;53.522;9.806;2023-05-08T12:00:40;5.70;;;5.00;;
4074;SDS011;2052;53.522;9.806;2023-05-08T12:03:10;9.30;;;4.90;;
4074;SDS011;2052;53.522;9.806;2023-05-08T12:05:38;5.30;;;4.80;;
4074;SDS011;2052;53.522;9.806;2023-05-08T12:08:05;5.17;;;4.67;;
4074;SDS011;2052;53.522;9.806;2023-05-08T12:10:37;4.60;;;4.20;;
4074;SDS011;2052;53.522;9.806;2023-05-08T12:13:14;5.50;;;4.47;;
4074;SDS011;2052;53.522;9.806;2023-05-08T12:15:42;6.37;;;4.40;;
4074;SDS011;2052;53.522;9.806;2023-05-08T12:18:09;4.47;;;4.07;;
4074;SDS011;2052;53.522;9.806;2023-05-08T12:20:35;4.70;;;4.20;;
4074;SDS011;2052;53.522;9.806;2023-05-08T12:23:03;5.97;;;4.70;;
4074;SDS011;2052;53.522;9.806;2023-05-08T12:25:30;5.47;;;4.33;;
4074;SDS011;2052;53.522;9.806;2023-05-08T12:27:57;7.23;;;4.30;;
4074;SDS011;2052;53.522;9.806;2023-05-08T12:30:24;6.13;;;4.57;;
4074;SDS011;2052;53.522;9.806;2023-05-08T12:32:51;5.63;;;5.03;;
4074;SDS011;2052;53.522;9.806;2023-05-08T12:35:17;7.53;;;4.63;;
4074;SDS011;2052;53.522;9.806;2023-05-08T12:37:49;7.67;;;5.10;;
4074;SDS011;2052;53.522;9.806;2023-05-08T12:40:27;4.40;;;3.90;;
4074;SDS011;2052;53.522;9.806;2023-05-08T12:42:55;5.53;;;5.00;;
4074;SDS011;2052;53.522;9.806;2023-05-08T12:45:26;9.47;;;5.30;;
4074;SDS011;2052;53.522;9.806;2023-05-08T12:47:56;7.43;;;4.43;;
4074;SDS011;2052;53.522;9.806;2023-05-08T12:50:26;4.87;;;4.00;;
4074;SDS011;2052;53.522;9.806;2023-05-08T12:53:00;4.47;;;4.00;;
4074;SDS011;2052;53.522;9.806;2023-05-08T12:55:33;5.77;;;4.03;;
4074;SDS011;2052;53.522;9.806;2023-05-08T12:58:07;6.83;;;4.23;;
4074;SDS011;2052;53.522;9.806;2023-05-08T13:00:37;4.63;;;4.23;;
4074;SDS011;2052;53.522;9.806;2023-05-08T13:03:05;4.17;;;3.70;;
4074;SDS011;2052;53.522;9.806;2023-05-08T13:05:32;10.70;;;3.57;;
4074;SDS011;2052;53.522;9.806;2023-05-08T13:08:04;4.67;;;4.10;;
4074;SDS011;2052;53.522;9.806;2023-05-08T13:10:44;7.00;;;4.27;;
4074;SDS011;2052;53.522;9.806;2023-05-08T13:13:11;4.33;;;3.93;;
4074;SDS011;2052;53.522;9.806;2023-05-08T13:15:38;4.80;;;3.60;;
4074;SDS011;2052;53.522;9.806;2023-05-08T13:18:05;4.70;;;4.13;;
4074;SDS011;2052;53.522;9.806;2023-05-08T13:20:32;4.17;;;3.77;;
4074;SDS011;2052;53.522;9.806;2023-05-08T13:23:00;4.43;;;3.43;;
4074;SDS011;2052;53.522;9.806;2023-05-08T13:25:26;9.60;;;4.10;;
4074;SDS011;2052;53.522;9.806;2023-05-08T13:27:55;3.73;;;3.37;;
4074;SDS011;2052;53.522;9.806;2023-05-08T13:30:22;4.00;;;3.30;;
4074;SDS011;2052;53.522;9.806;2023-05-08T13:32:51;4.60;;;3.67;;
4074;SDS011;2052;53.522;9.806;2023-05-08T13:35:18;6.57;;;3.93;;
4074;SDS011;2052;53.522;9.806;2023-05-08T13:37:45;3.87;;;3.57;;
4074;SDS011;2052;53.522;9.806;2023-05-08T13:40:12;8.20;;;4.30;;
4074;SDS011;2052;53.522;9.806;2023-05-08T13:42:39;5.70;;;4.30;;
4074;SDS011;2052;53.522;9.806;2023-05-08T13:45:08;3.50;;;3.20;;
4074;SDS011;2052;53.522;9.806;2023-05-08T13:47:37;3.80;;;3.50;;
4074;SDS011;2052;53.522;9.806;2023-05-08T13:50:04;4.23;;;3.40;;
4074;SDS011;2052;53.522;9.806;2023-05-08T13:52:31;5.57;;;3.50;;
4074;SDS011;2052;53.522;9.806;2023-05-08T13:54:59;5.57;;;3.80;;
4074;SDS011;2052;53.522;9.806;2023-05-08T13:57:25;4.07;;;3.40;;
4074;SDS011;2052;53.522;9.806;2023-05-08T13:59:52;4.73;;;3.63;;
4074;SDS011;2052;53.522;9.806;2023-05-08T14:02:20;4.30;;;3.90;;
4074;SDS011;2052;53.522;9.806;2023-05-08T14:04:47;5.00;;;4.07;;
4074;SDS011;2052;53.522;9.806;2023-05-08T14:07:13;9.73;;;3.90;;
4074;SDS011;2052;53.522;9.806;2023-05-08T14:09:40;6.30;;;3.60;;
4074;SDS011;2052;53.522;9.806;2023-05-08T14:12:07;4.53;;;4.13;;
4074;SDS011;2052;53.522;9.806;2023-05-08T14:14:34;5.00;;;4.00;;
4074;SDS011;2052;53.522;9.806;2023-05-08T14:17:01;18.33;;;5.80;;
4074;SDS011;2052;53.522;9.806;2023-05-08T14:19:30;6.60;;;4.43;;
4074;SDS011;2052;53.522;9.806;2023-05-08T14:21:57;4.23;;;3.83;;
4074;SDS011;2052;53.522;9.806;2023-05-08T14:24:24;5.67;;;4.67;;
4074;SDS011;2052;53.522;9.806;2023-05-08T14:26:51;4.67;;;4.27;;
4074;SDS011;2052;53.522;9.806;2023-05-08T14:29:18;4.73;;;4.23;;
4074;SDS011;2052;53.522;9.806;2023-05-08T14:31:44;4.67;;;3.80;;
4074;SDS011;2052;53.522;9.806;2023-05-08T14:34:11;5.63;;;4.40;;
4074;SDS011;2052;53.522;9.806;2023-05-08T14:36:39;10.10;;;3.83;;
4074;SDS011;2052;53.522;9.806;2023-05-08T14:39:06;4.60;;;4.20;;
4074;SDS011;2052;53.522;9.806;2023-05-08T14:41:33;6.83;;;4.57;;
4074;SDS011;2052;53.522;9.806;2023-05-08T14:44:01;6.50;;;4.20;;
4074;SDS011;2052;53.522;9.806;2023-05-08T14:46:28;5.10;;;3.60;;
4074;SDS011;2052;53.522;9.806;2023-05-08T14:48:55;7.53;;;4.90;;
4074;SDS011;2052;53.522;9.806;2023-05-08T14:51:22;4.40;;;3.90;;
4074;SDS011;2052;53.522;9.806;2023-05-08T14:53:50;4.30;;;3.63;;
4074;SDS011;2052;53.522;9.806;2023-05-08T14:56:17;5.13;;;3.40;;
4074;SDS011;2052;53.522;9.806;2023-05-08T14:58:44;5.43;;;4.20;;
4074;SDS011;2052;53.522;9.806;2023-05-08T15:01:12;5.97;;;4.07;;
4074;SDS011;2052;53.522;9.806;2023-05-08T15:03:39;5.17;;;4.10;;
4074;SDS011;2052;53.522;9.806;2023-05-08T15:06:05;5.07;;;3.93;;
4074;SDS011;2052;53.522;9.806;2023-05-08T15:08:33;11.43;;;4.40;;
4074;SDS011;2052;53.522;9.806;2023-05-08T15:11:00;5.33;;;3.93;;
4074;SDS011;2052;53.522;9.806;2023-05-08T15:13:28;6.70;;;4.67;;
4074;SDS011;2052;53.522;9.806;2023-05-08T15:15:54;5.70;;;4.20;;
4074;SDS011;2052;53.522;9.806;2023-05-08T15:18:22;4.33;;;3.40;;
4074;SDS011;2052;53.522;9.806;2023-05-08T15:20:52;5.00;;;3.77;;
4074;SDS011;2052;53.522;9.806;2023-05-08T15:23:19;5.40;;;3.40;;
4074;SDS011;2052;53.522;9.806;2023-05-08T15:25:46;6.00;;;3.33;;
4074;SDS011;2052;53.522;9.806;2023-05-08T15:28:16;4.43;;;3.50;;